CheckWX is a tool to help pilots better visualize weather data.  It is not intended as a substitute for an official pre-flight weather briefing.

16:37:39 UTC

VIDP TAF
Indira Gandhi International Airport
New Delhi, India
TAF VIDP 071400Z 0715/0724 07004KT 2000 FU NSC BECMG 0718/0720 VRB02KT 1000 BR BECMG 0722/0724 00000KT 0600 MIFG

Dec-7@
15:00 UTC

Dec-7 @ 15:00 UTC

Dec-7@
18:00 UTC

Dec-7 @ 18:00 UTC

TAF VIDP 071400Z 0715/0724 07004KT 2000 FU NSC
Wind
  • 070° at 4 KTS
Conditions
Smoke
Cloud Levels
  • No significant clouds

Dec-7@
18:00 UTC

Dec-7 @ 18:00 UTC

Dec-7@
22:00 UTC

Dec-7 @ 22:00 UTC

BECMG 0718/0720 VRB02KT 1000 BR

Becoming

Becoming Conditions expected by Sat, Dec 7, 2019 @ 20:00 UTC

Wind
  • Variable at 2 KTS
Conditions
Mist
Cloud Levels
  • No significant clouds

Dec-7@
22:00 UTC

Dec-7 @ 22:00 UTC

Dec-8@
00:00 UTC

Dec-8 @ 00:00 UTC

BECMG 0722/0724 00000KT 0600 MIFG

Becoming

Becoming Conditions expected by Sun, Dec 8, 2019 @ 00:00 UTC

Conditions
Shallow Fog
Cloud Levels
  • No significant clouds